Time;durP1;ratioP1;P1;durP2;ratioP2;P2;SDS_P1;SDS_P2;PMS_P1;PMS_P2;Temp;Humidity;BMP_temperature;BMP_pressure;BME280_temperature;BME280_humidity;BME280_pressure;Samples;Min_cycle;Max_cycle;Signal;HPM_P1;HPM_P2
2022/09/02 00:01:01;;;;;;;3.80;1.50;;;;;;;10.57;70.87;101339.61;1725394;81;25820;-77
2022/09/02 00:03:32;;;;;;;2.45;1.95;;;;;;;10.53;70.91;101342.29;1724494;81;25857;-77
2022/09/02 00:06:00;;;;;;;4.75;1.50;;;;;;;10.50;70.98;101337.25;1732021;81;27454;-77
2022/09/02 00:08:27;;;;;;;2.98;1.67;;;;;;;10.47;70.98;101333.59;1740940;80;25600;-77
2022/09/02 00:10:54;;;;;;;2.92;1.27;;;;;;;10.45;70.93;101338.78;1716119;81;25794;-77
2022/09/02 00:13:21;;;;;;;2.25;1.05;;;;;;;10.42;70.96;101339.10;1714497;82;25843;-78
2022/09/02 00:15:48;;;;;;;2.22;1.10;;;;;;;10.38;70.93;101341.78;1714947;81;25904;-77
2022/09/02 00:18:16;;;;;;;4.90;2.30;;;;;;;10.33;70.93;101341.47;1712067;82;27471;-77
2022/09/02 00:20:46;;;;;;;16.85;10.70;;;;;;;10.30;71.08;101343.13;1714967;82;25843;-77
2022/09/02 00:23:15;;;;;;;12.95;9.03;;;;;;;10.28;71.09;101345.98;1702463;81;25946;-77
2022/09/02 00:25:43;;;;;;;9.05;5.35;;;;;;;10.28;71.12;101343.30;1694200;84;25778;-77
2022/09/02 00:28:12;;;;;;;5.75;2.52;;;;;;;10.29;71.26;101345.45;1716798;82;26357;-77
2022/09/02 00:30:40;;;;;;;3.20;1.75;;;;;;;10.30;71.28;101347.14;1718586;81;27461;-77
2022/09/02 00:33:08;;;;;;;2.47;1.90;;;;;;;10.29;71.37;101344.95;1721455;82;25768;-77
2022/09/02 00:35:35;;;;;;;3.12;1.77;;;;;;;10.30;71.51;101342.63;1719224;82;25781;-77
2022/09/02 00:38:04;;;;;;;6.67;1.60;;;;;;;10.31;71.58;101342.95;1715159;82;25744;-77
2022/09/02 00:40:32;;;;;;;2.37;1.47;;;;;;;10.32;71.57;101351.34;1727160;82;25999;-77
2022/09/02 00:43:00;;;;;;;4.85;2.27;;;;;;;10.31;71.59;101343.48;1724354;82;27472;-77
2022/09/02 00:45:26;;;;;;;5.47;1.90;;;;;;;10.32;71.63;101356.69;1711627;82;26366;-77
2022/09/02 00:47:53;;;;;;;4.47;1.90;;;;;;;10.33;71.78;101349.50;1721702;82;25863;-77
2022/09/02 00:50:27;;;;;;;3.65;1.60;;;;;;;10.33;71.77;101349.50;1720177;82;25741;-77
2022/09/02 00:52:58;;;;;;;3.90;1.40;;;;;;;10.33;71.80;101343.62;1719437;82;25762;-77
2022/09/02 00:55:30;;;;;;;2.60;1.75;;;;;;;10.31;71.78;101341.61;1716089;82;27536;-77
2022/09/02 00:58:02;;;;;;;5.75;4.25;;;;;;;10.31;71.72;101344.81;1719341;82;25863;-78
2022/09/02 01:00:34;;;;;;;8.70;5.20;;;;;;;10.28;71.77;101351.83;1719725;82;25878;-78
2022/09/02 01:03:05;;;;;;;5.40;3.85;;;;;;;10.24;71.65;101342.45;1692426;83;25815;-78
2022/09/02 01:05:37;;;;;;;3.25;2.17;;;;;;;10.23;71.78;101347.47;1682314;84;25778;-77
2022/09/02 01:08:06;;;;;;;3.02;2.10;;;;;;;10.24;71.95;101343.80;1716478;82;28224;-77
2022/09/02 01:10:35;;;;;;;4.30;1.65;;;;;;;10.23;71.96;101346.97;1692846;84;25761;-77
2022/09/02 01:13:09;;;;;;;2.35;1.80;;;;;;;10.23;71.98;101349.65;1716652;82;25792;-77
2022/09/02 01:15:43;;;;;;;4.22;2.02;;;;;;;10.22;71.99;101349.33;1727628;82;25779;-77
2022/09/02 01:18:17;;;;;;;7.80;2.25;;;;;;;10.21;72.14;101344.12;1718151;82;26286;-77
2022/09/02 01:20:45;;;;;;;3.37;2.37;;;;;;;10.20;72.25;101343.80;1717764;82;27543;-77
2022/09/02 01:23:15;;;;;;;3.77;1.92;;;;;;;10.19;72.25;101340.28;1724773;81;25788;-77
2022/09/02 01:25:45;;;;;;;4.15;2.05;;;;;;;10.21;72.28;101341.44;1724931;82;25839;-77
2022/09/02 01:28:15;;;;;;;4.95;2.10;;;;;;;10.22;72.35;101341.79;1725963;81;26283;-77
2022/09/02 01:30:47;;;;;;;2.42;1.90;;;;;;;10.22;72.43;101348.48;1721847;82;25831;-77
2022/09/02 01:33:16;;;;;;;3.12;1.90;;;;;;;10.20;72.45;101341.94;1724933;81;27443;-77
2022/09/02 01:35:42;;;;;;;3.80;1.62;;;;;;;10.18;72.39;101337.77;1720409;81;25861;-77
2022/09/02 01:38:09;;;;;;;3.98;2.77;;;;;;;10.14;72.14;101335.91;1721311;81;25914;-77
2022/09/02 01:40:37;;;;;;;5.85;2.98;;;;;;;10.08;72.24;101340.56;1721039;81;26287;-77
2022/09/02 01:43:09;;;;;;;4.47;2.25;;;;;;;9.98;72.09;101347.42;1718618;82;25962;-77
2022/09/02 01:45:37;;;;;;;6.22;2.08;;;;;;;9.82;71.75;101347.38;1718589;82;27472;-77
2022/09/02 01:48:07;;;;;;;3.22;1.82;;;;;;;9.67;71.50;101345.48;1713307;80;25866;-77
2022/09/02 01:50:38;;;;;;;2.67;1.98;;;;;;;9.57;71.45;101346.13;1720105;82;25728;-77
2022/09/02 01:53:04;;;;;;;2.65;1.55;;;;;;;9.47;71.54;101344.94;1718069;82;34795;-77
2022/09/02 01:55:33;;;;;;;2.15;1.25;;;;;;;9.41;71.80;101348.76;1720440;82;25955;-78
2022/09/02 01:57:59;;;;;;;3.35;1.42;;;;;;;9.38;72.07;101353.92;1725146;82;28332;-77
2022/09/02 02:00:27;;;;;;;2.20;1.30;;;;;;;9.36;72.14;101357.25;1724943;81;25755;-77
2022/09/02 02:02:55;;;;;;;2.42;1.60;;;;;;;9.36;72.14;101353.73;1698534;82;25742;-77
2022/09/02 02:05:22;;;;;;;3.05;1.85;;;;;;;9.34;72.21;101354.72;1712870;81;26306;-77
2022/09/02 02:07:49;;;;;;;2.22;1.52;;;;;;;9.32;72.16;101351.37;1722766;82;26426;-78
2022/09/02 02:10:19;;;;;;;3.15;1.80;;;;;;;9.29;72.13;101346.85;1720296;81;27550;-77
2022/09/02 02:12:46;;;;;;;2.90;1.72;;;;;;;9.27;72.13;101350.19;1716626;82;25869;-77
2022/09/02 02:15:16;;;;;;;3.62;2.00;;;;;;;9.27;72.22;101358.20;1698126;82;25854;-77
2022/09/02 02:17:43;;;;;;;3.35;1.95;;;;;;;9.26;72.37;101356.52;1725397;81;25878;-77
2022/09/02 02:20:13;;;;;;;3.02;2.12;;;;;;;9.25;72.44;101354.86;1718831;81;25773;-77
2022/09/02 02:22:42;;;;;;;3.70;1.82;;;;;;;9.23;72.37;101356.36;1723613;81;27745;-77
2022/09/02 02:25:11;;;;;;;3.33;2.00;;;;;;;9.21;72.43;101359.70;1734692;81;25849;-77
2022/09/02 02:27:37;;;;;;;2.47;1.98;;;;;;;9.16;72.32;101362.48;1729628;81;25809;-78
2022/09/02 02:30:08;;;;;;;7.03;2.87;;;;;;;9.12;72.41;101353.96;1730926;81;26298;-77
2022/09/02 02:32:34;;;;;;;3.85;2.15;;;;;;;9.10;72.57;101352.44;1729685;81;25773;-77
2022/09/02 02:35:02;;;;;;;2.45;1.77;;;;;;;9.05;72.58;101350.23;1710335;82;27463;-77
2022/09/02 02:37:29;;;;;;;3.12;1.70;;;;;;;9.03;72.62;101348.22;1712452;82;25768;-77
2022/09/02 02:39:56;;;;;;;2.77;1.55;;;;;;;8.98;72.29;101351.05;1725854;82;25760;-77
2022/09/02 02:42:23;;;;;;;4.70;1.70;;;;;;;8.89;72.22;101345.30;1702107;83;26551;-77
2022/09/02 02:44:49;;;;;;;2.05;1.55;;;;;;;8.81;72.31;101347.41;1714903;81;25725;-77
2022/09/02 02:47:16;;;;;;;1.82;1.40;;;;;;;8.78;72.43;101346.90;1715332;82;27436;-77
2022/09/02 02:49:43;;;;;;;2.65;1.70;;;;;;;8.74;72.49;101349.55;1719456;82;26605;-77
2022/09/02 02:52:11;;;;;;;1.50;1.30;;;;;;;8.69;72.59;101342.48;1687831;84;25807;-77
2022/09/02 02:54:38;;;;;;;2.37;1.37;;;;;;;8.66;72.69;101346.30;1713852;81;25796;-77
2022/09/02 02:57:06;;;;;;;2.10;1.52;;;;;;;8.65;72.78;101347.80;1707635;82;26275;-77
2022/09/02 02:59:33;;;;;;;1.40;1.30;;;;;;;8.63;72.84;101347.97;1720405;82;26943;-77
2022/09/02 03:02:00;;;;;;;2.90;1.50;;;;;;;8.60;72.72;101352.80;1713030;82;25891;-77
2022/09/02 03:04:26;;;;;;;2.47;1.22;;;;;;;8.54;72.50;101344.41;1717850;81;25741;-77
2022/09/02 03:06:53;;;;;;;2.58;1.40;;;;;;;8.49;72.41;101344.51;1712448;81;26540;-77
2022/09/02 03:09:19;;;;;;;3.30;1.60;;;;;;;8.45;72.51;101341.31;1681509;84;25747;-77
2022/09/02 03:11:47;;;;;;;3.45;1.52;;;;;;;8.45;72.67;101348.48;1687214;84;27598;-77
2022/09/02 03:14:15;;;;;;;1.75;1.50;;;;;;;8.44;72.83;101342.81;1713690;81;25751;-77
2022/09/02 03:16:41;;;;;;;4.65;1.40;;;;;;;8.45;73.01;101348.48;1723049;82;25732;-77
2022/09/02 03:19:08;;;;;;;1.77;1.67;;;;;;;8.46;73.05;101345.68;1710438;82;26208;-77
2022/09/02 03:21:34;;;;;;;3.15;1.60;;;;;;;8.46;72.97;101346.17;1720160;82;25998;-77
2022/09/02 03:24:01;;;;;;;2.92;1.85;;;;;;;8.45;72.89;101345.81;1718760;81;27461;-77
2022/09/02 03:26:27;;;;;;;2.75;1.62;;;;;;;8.43;72.85;101354.47;1714510;82;25819;-77
2022/09/02 03:28:57;;;;;;;3.17;1.50;;;;;;;8.41;72.90;101351.97;1735654;81;25764;-77
2022/09/02 03:31:27;;;;;;;1.90;1.25;;;;;;;8.37;72.60;101353.27;1730094;81;25797;-77
2022/09/02 03:33:54;;;;;;;2.13;1.43;;;;;;;8.33;72.59;101354.58;1737273;81;25840;-77
2022/09/02 03:36:28;;;;;;;2.80;1.65;;;;;;;8.30;72.70;101354.02;1731321;81;28258;-77
2022/09/02 03:38:56;;;;;;;2.67;1.20;;;;;;;8.26;72.68;101355.33;1734163;81;25795;-77
2022/09/02 03:41:23;;;;;;;2.55;2.35;;;;;;;8.23;72.66;101352.95;1734328;81;26535;-77
2022/09/02 03:43:51;;;;;;;6.85;4.95;;;;;;;8.20;72.62;101359.42;1733467;81;26558;-77
2022/09/02 03:46:18;;;;;;;2.25;1.98;;;;;;;8.16;72.43;101356.73;1740076;81;25741;-77
2022/09/02 03:48:45;;;;;;;1.77;1.42;;;;;;;8.15;72.58;101356.86;1737251;81;28290;-77
2022/09/02 03:51:12;;;;;;;2.05;1.60;;;;;;;8.14;72.72;101359.20;1742640;81;25873;-77
2022/09/02 03:53:39;;;;;;;1.55;1.40;;;;;;;8.13;72.74;101364.17;1745076;81;25554;-78
2022/09/02 03:56:13;;;;;;;3.72;1.60;;;;;;;8.10;72.80;101369.34;1740989;81;25475;-77
2022/09/02 03:58:42;;;;;;;2.17;1.30;;;;;;;8.06;72.85;101365.28;1738292;81;25770;-77
2022/09/02 04:01:22;;;;;;;2.60;1.32;;;;;;;8.04;72.86;101373.12;1669303;84;27527;-77
2022/09/02 04:03:50;;;;;;;2.20;1.27;;;;;;;8.00;72.86;101379.23;1704894;82;26316;-78
2022/09/02 04:06:20;;;;;;;2.47;1.57;;;;;;;7.94;72.65;101370.98;1701000;82;25861;-78
2022/09/02 04:08:48;;;;;;;2.37;1.90;;;;;;;7.89;72.61;101375.96;1696466;84;26377;-78
2022/09/02 04:11:19;;;;;;;3.10;1.62;;;;;;;7.84;72.64;101379.56;1669147;84;25886;-78
2022/09/02 04:13:49;;;;;;;1.67;1.30;;;;;;;7.80;72.67;101382.52;1697422;82;28707;-77
2022/09/02 04:16:27;;;;;;;1.85;1.35;;;;;;;7.77;72.64;101380.66;1691954;82;25896;-78
2022/09/02 04:18:50;;;;;;;2.58;1.65;;;;;;;7.76;73.00;101388.33;1662147;84;25820;-78
2022/09/02 04:21:18;;;;;;;2.85;1.30;;;;;;;7.76;73.11;101384.33;1659308;84;25803;-78
2022/09/02 04:23:46;;;;;;;1.92;1.57;;;;;;;7.75;73.26;101392.81;1664646;84;25779;-78
2022/09/02 04:26:16;;;;;;;2.37;1.37;;;;;;;7.79;73.51;101389.34;1731078;81;27443;-78
2022/09/02 04:28:43;;;;;;;3.62;1.60;;;;;;;7.84;73.82;101392.90;1742910;80;25961;-78
2022/09/02 04:31:13;;;;;;;2.22;1.37;;;;;;;7.86;74.00;101389.58;1721582;82;25817;-78
2022/09/02 04:33:41;;;;;;;2.83;1.35;;;;;;;7.89;74.17;101391.97;1686841;83;26225;-78
2022/09/02 04:36:13;;;;;;;2.40;1.60;;;;;;;7.93;74.34;101392.00;1715023;82;25766;-78
2022/09/02 04:38:39;;;;;;;3.30;1.37;;;;;;;7.98;74.45;101389.70;1694017;83;26937;-78
2022/09/02 04:41:17;;;;;;;2.42;1.67;;;;;;;8.02;74.60;101389.77;1684506;83;25865;-78
2022/09/02 04:43:44;;;;;;;4.10;1.77;;;;;;;8.04;74.69;101392.61;1707590;81;25798;-79
2022/09/02 04:46:14;;;;;;;5.00;2.02;;;;;;;8.08;74.87;101392.68;1711359;81;26281;-78
2022/09/02 04:48:42;;;;;;;4.50;1.80;;;;;;;8.11;75.51;101384.35;1712105;81;26420;-78
2022/09/02 04:51:16;;;;;;;2.75;2.00;;;;;;;8.16;75.55;101390.57;1700676;81;27467;-78
2022/09/02 04:53:44;;;;;;;2.87;2.00;;;;;;;8.21;75.61;101389.11;1711892;81;25906;-78
2022/09/02 04:56:18;;;;;;;4.87;2.33;;;;;;;8.25;75.80;101389.21;1697956;81;25739;-78
2022/09/02 04:58:49;;;;;;;4.20;2.80;;;;;;;8.32;76.05;101390.26;1715587;81;25714;-78
2022/09/02 05:01:22;;;;;;;4.50;2.77;;;;;;;8.39;76.40;101387.81;1673352;83;25342;-78
2022/09/02 05:03:50;;;;;;;3.60;2.77;;;;;;;8.46;76.70;101388.89;1728311;81;29574;-78
2022/09/02 05:06:25;;;;;;;4.58;2.75;;;;;;;8.54;76.93;101389.80;1681649;83;26429;-78
2022/09/02 05:08:55;;;;;;;8.25;2.90;;;;;;;8.64;77.20;101389.69;1721436;82;25723;-78
2022/09/02 05:11:28;;;;;;;6.25;2.90;;;;;;;8.72;77.63;101395.61;1701584;81;26902;-78
2022/09/02 05:13:59;;;;;;;3.87;2.80;;;;;;;8.80;77.64;101398.33;1688858;83;25805;-78
2022/09/02 05:16:38;;;;;;;4.62;3.80;;;;;;;8.87;78.24;101395.39;1706620;81;28278;-78
2022/09/02 05:19:10;;;;;;;5.57;4.03;;;;;;;8.94;78.38;101392.44;1730619;81;25873;-78
2022/09/02 05:21:41;;;;;;;4.50;2.58;;;;;;;9.05;80.01;101398.83;1701714;83;25786;-78
2022/09/02 05:24:09;;;;;;;2.98;1.85;;;;;;;9.18;80.65;101397.42;1731083;82;25770;-78
2022/09/02 05:26:37;;;;;;;4.08;1.92;;;;;;;9.30;80.42;101396.14;1699925;82;25785;-78
2022/09/02 05:29:07;;;;;;;3.98;1.70;;;;;;;9.43;81.07;101393.55;1694527;82;27452;-77
2022/09/02 05:31:34;;;;;;;4.72;1.98;;;;;;;9.53;80.16;101399.11;1715159;81;25896;-78
2022/09/02 05:34:00;;;;;;;5.03;1.70;;;;;;;9.58;79.99;101396.77;1703714;82;25744;-78
2022/09/02 05:36:27;;;;;;;3.58;1.50;;;;;;;9.66;80.11;101402.67;1723134;81;26237;-78
2022/09/02 05:38:55;;;;;;;3.98;1.80;;;;;;;9.73;80.42;101401.03;1722114;81;25909;-78
2022/09/02 05:41:23;;;;;;;4.25;1.77;;;;;;;9.78;80.41;101405.38;1718628;82;27488;-77
2022/09/02 05:43:58;;;;;;;2.37;1.57;;;;;;;9.83;80.32;101405.25;1724087;81;26467;-78
2022/09/02 05:46:25;;;;;;;2.65;1.80;;;;;;;9.90;80.31;101404.11;1718616;82;25721;-77
2022/09/02 05:49:06;;;;;;;4.17;1.35;;;;;;;9.96;80.45;101400.28;1723949;82;26420;-78
2022/09/02 05:51:48;;;;;;;2.92;1.65;;;;;;;10.03;80.54;101414.66;1729679;81;26408;-77
2022/09/02 05:54:28;;;;;;;2.20;1.32;;;;;;;10.11;80.66;101405.86;1729541;82;28363;-77
2022/09/02 05:57:05;;;;;;;2.70;1.25;;;;;;;10.20;80.64;101406.72;1730521;81;25797;-77
2022/09/02 05:59:40;;;;;;;5.03;1.30;;;;;;;10.28;80.52;101406.72;1731355;82;25949;-77
2022/09/02 06:02:00;;;;;;;2.70;1.40;;;;;;;10.36;80.89;101410.74;1729444;82;25851;-77
2022/09/02 06:04:27;;;;;;;4.97;1.10;;;;;;;10.45;80.98;101409.27;1712382;82;25605;-77
2022/09/02 06:06:55;;;;;;;2.00;1.32;;;;;;;10.56;81.20;101401.39;1729172;82;27447;-77
2022/09/02 06:09:23;;;;;;;1.47;1.17;;;;;;;10.66;81.11;101400.22;1695123;83;25592;-77
2022/09/02 06:11:51;;;;;;;2.67;1.25;;;;;;;10.76;81.15;101400.03;1726372;82;25628;-77
2022/09/02 06:14:23;;;;;;;3.62;1.32;;;;;;;10.88;81.53;101410.77;1728173;82;25781;-77
2022/09/02 06:16:53;;;;;;;3.22;1.22;;;;;;;11.00;81.35;101409.41;1715631;82;25277;-77
2022/09/02 06:19:29;;;;;;;4.92;1.50;;;;;;;11.11;81.20;101416.25;1732581;80;27448;-77
2022/09/02 06:21:53;;;;;;;2.52;1.25;;;;;;;11.23;81.37;101409.02;1717918;81;26620;-77
2022/09/02 06:24:22;;;;;;;2.37;1.10;;;;;;;11.35;81.30;101409.01;1755460;80;25885;-77
2022/09/02 06:26:49;;;;;;;2.52;1.37;;;;;;;11.47;80.83;101408.95;1700589;82;25748;-77
2022/09/02 06:29:16;;;;;;;5.47;1.10;;;;;;;11.60;81.11;101409.75;1699498;83;26451;-77
2022/09/02 06:31:45;;;;;;;1.15;0.78;;;;;;;11.73;80.83;101414.09;1701181;83;27475;-77
2022/09/02 06:34:15;;;;;;;1.82;1.05;;;;;;;11.85;80.72;101410.50;1741145;80;26377;-77
2022/09/02 06:36:45;;;;;;;1.92;1.12;;;;;;;11.96;80.54;101412.30;1739470;81;25813;-77
2022/09/02 06:39:16;;;;;;;1.60;0.93;;;;;;;12.07;80.59;101414.59;1768109;79;25775;-77
2022/09/02 06:41:45;;;;;;;2.27;1.00;;;;;;;12.21;80.29;101412.48;1743601;81;25388;-77
2022/09/02 06:44:14;;;;;;;2.65;1.20;;;;;;;12.33;80.22;101415.11;1726283;81;27443;-77
2022/09/02 06:46:48;;;;;;;0.75;0.70;;;;;;;12.44;79.87;101420.57;1731939;81;26508;-77
2022/09/02 06:49:15;;;;;;;1.40;0.80;;;;;;;12.57;80.08;101413.25;1714080;82;25850;-77
2022/09/02 06:51:47;;;;;;;4.55;0.93;;;;;;;12.68;79.88;101411.48;1715470;82;26451;-77
2022/09/02 06:54:18;;;;;;;1.53;0.83;;;;;;;12.80;79.70;101414.91;1715934;83;25300;-77
2022/09/02 06:56:46;;;;;;;0.90;0.80;;;;;;;12.91;79.53;101417.16;1735273;82;28347;-77
2022/09/02 06:59:13;;;;;;;2.83;0.80;;;;;;;13.02;79.74;101418.05;1732232;81;25907;-77
2022/09/02 07:01:45;;;;;;;4.78;0.95;;;;;;;13.12;79.62;101411.95;1736141;80;25777;-77
2022/09/02 07:07:03;;;;;;;0.75;0.55;;;;;;;13.33;78.52;101411.72;1722510;82;25743;-77
2022/09/02 07:09:30;;;;;;;1.02;0.70;;;;;;;13.45;78.81;101416.98;1736592;82;27441;-77
2022/09/02 07:12:01;;;;;;;2.92;0.50;;;;;;;13.55;78.58;101417.53;1733931;80;25833;-77
2022/09/02 07:14:29;;;;;;;0.57;0.50;;;;;;;13.65;78.30;101422.11;1702870;82;25844;-77
2022/09/02 07:16:56;;;;;;;8.80;1.40;;;;;;;13.71;77.64;101420.02;1711896;82;25808;-77
2022/09/02 07:19:25;;;;;;;1.60;0.55;;;;;;;13.81;77.64;101423.27;1735301;82;25831;-77
2022/09/02 07:21:53;;;;;;;1.50;0.78;;;;;;;13.92;78.04;101420.11;1736152;81;28275;-77
2022/09/02 07:24:22;;;;;;;1.15;0.80;;;;;;;14.03;77.04;101420.13;1732003;82;25709;-77
2022/09/02 07:26:49;;;;;;;1.55;0.47;;;;;;;14.10;76.92;101418.33;1735426;82;25931;-77
2022/09/02 07:29:17;;;;;;;1.12;0.60;;;;;;;14.18;76.19;101420.39;1693981;83;26444;-77
2022/09/02 07:31:46;;;;;;;1.20;0.47;;;;;;;14.27;76.27;101422.46;1718596;82;25336;-77
2022/09/02 07:34:15;;;;;;;4.20;0.70;;;;;;;14.36;75.93;101426.75;1737626;82;28292;-77
2022/09/02 07:36:44;;;;;;;1.65;0.50;;;;;;;14.46;75.63;101427.25;1701223;82;26558;-77
2022/09/02 07:39:12;;;;;;;1.52;0.60;;;;;;;14.54;75.21;101427.97;1714170;82;25734;-77
2022/09/02 07:41:43;;;;;;;0.85;0.40;;;;;;;14.63;74.89;101424.13;1714241;83;25781;-77
2022/09/02 07:44:10;;;;;;;2.33;0.78;;;;;;;14.71;73.63;101416.94;1712538;82;25756;-77
2022/09/02 07:46:37;;;;;;;1.35;0.95;;;;;;;14.76;73.69;101424.75;1713654;82;27439;-77
2022/09/02 07:49:09;;;;;;;0.85;0.62;;;;;;;14.84;74.03;101416.52;1714369;83;26174;-77
2022/09/02 07:51:41;;;;;;;1.55;0.50;;;;;;;14.93;72.83;101419.41;1714151;82;26524;-77
2022/09/02 07:54:11;;;;;;;2.35;0.45;;;;;;;15.01;72.85;101421.95;1716619;81;25840;-78
2022/09/02 07:56:39;;;;;;;1.00;0.40;;;;;;;15.10;72.48;101426.18;1719162;82;25940;-77
2022/09/02 07:59:06;;;;;;;2.85;0.55;;;;;;;15.17;71.48;101423.02;1708412;81;27448;-77
2022/09/02 08:01:34;;;;;;;3.02;0.50;;;;;;;15.23;71.83;101425.44;1719373;81;26473;-77
2022/09/02 08:04:01;;;;;;;0.95;0.50;;;;;;;15.31;71.37;101413.97;1719744;81;25887;-77
2022/09/02 08:06:31;;;;;;;1.75;0.50;;;;;;;15.43;71.58;101425.10;1740170;82;25523;-77
2022/09/02 08:08:57;;;;;;;2.35;0.60;;;;;;;15.52;71.31;101422.57;1707800;83;25718;-77
2022/09/02 08:11:24;;;;;;;2.47;0.65;;;;;;;15.60;70.43;101414.30;1735992;82;27466;-77
2022/09/02 08:13:50;;;;;;;0.98;0.30;;;;;;;15.66;70.63;101418.89;1734984;82;25765;-78
2022/09/02 08:16:17;;;;;;;0.95;0.40;;;;;;;15.74;68.83;101419.27;1705262;82;26417;-77
2022/09/02 08:18:44;;;;;;;3.60;0.50;;;;;;;15.79;67.92;101416.27;1715289;81;26387;-77
2022/09/02 08:21:10;;;;;;;2.60;0.30;;;;;;;15.85;67.55;101413.27;1710773;83;25293;-77
2022/09/02 08:23:37;;;;;;;0.95;0.40;;;;;;;15.89;66.46;101411.31;1713699;83;28259;-77
2022/09/02 08:26:05;;;;;;;2.22;0.30;;;;;;;15.93;65.54;101413.92;1713581;82;25836;-77
2022/09/02 08:28:31;;;;;;;1.67;0.40;;;;;;;16.01;65.02;101413.77;1719406;81;25821;-77
2022/09/02 08:30:58;;;;;;;0.65;0.40;;;;;;;16.07;65.02;101412.11;1726141;81;26202;-77
2022/09/02 08:33:25;;;;;;;3.20;0.42;;;;;;;16.14;64.35;101411.62;1735036;81;25929;-77
2022/09/02 08:35:51;;;;;;;1.95;0.50;;;;;;;16.21;63.93;101409.75;1736601;81;28214;-77
2022/09/02 08:38:17;;;;;;;0.28;0.20;;;;;;;16.27;63.05;101410.31;1716494;81;25782;-77
2022/09/02 08:40:44;;;;;;;2.17;0.37;;;;;;;16.34;62.07;101410.33;1717095;81;25543;-77
2022/09/02 08:43:31;;;;;;;0.20;0.20;;;;;;;16.38;61.06;101418.34;1747262;81;25875;-77
2022/09/02 08:46:01;;;;;;;1.15;0.25;;;;;;;16.42;59.80;101408.78;1748991;80;26376;-77
2022/09/02 08:48:48;;;;;;;1.57;0.40;;;;;;;16.47;59.34;101411.17;1748676;81;27473;-77
2022/09/02 08:51:26;;;;;;;0.20;0.20;;;;;;;16.51;60.10;101411.10;1739022;80;25882;-77
2022/09/02 08:54:01;;;;;;;1.02;0.30;;;;;;;16.55;59.73;101408.30;1743317;80;25903;-77
2022/09/02 08:56:28;;;;;;;1.22;0.30;;;;;;;16.60;60.06;101409.03;1743642;81;26434;-77
2022/09/02 08:59:01;;;;;;;0.20;0.20;;;;;;;16.68;58.68;101407.51;1737704;80;25826;-77
2022/09/02 09:01:46;;;;;;;0.60;0.40;;;;;;;16.71;56.99;101405.72;1712930;83;27548;-77
2022/09/02 09:04:26;;;;;;;0.25;0.23;;;;;;;16.74;57.20;101399.91;1716370;81;26004;-77
2022/09/02 09:07:27;;;;;;;0.23;0.23;;;;;;;16.77;56.13;101400.31;1714970;83;26402;-77
2022/09/02 09:10:20;;;;;;;0.55;0.35;;;;;;;16.81;56.25;101400.21;1711157;83;25744;-77
2022/09/02 09:12:55;;;;;;;0.40;0.40;;;;;;;16.86;56.31;101391.47;1715507;81;26434;-77
2022/09/02 09:15:46;;;;;;;0.72;0.33;;;;;;;16.89;55.20;101389.17;1717824;80;27506;-77
2022/09/02 09:18:16;;;;;;;0.30;0.30;;;;;;;16.94;55.08;101393.45;1714048;83;26150;-77
2022/09/02 09:20:44;;;;;;;0.53;0.40;;;;;;;16.98;55.13;101389.28;1721656;81;26454;-77
2022/09/02 09:23:28;;;;;;;0.57;0.30;;;;;;;17.08;55.38;101393.44;1715823;83;26438;-77
2022/09/02 09:26:00;;;;;;;0.93;0.40;;;;;;;17.15;55.66;101395.08;1716512;82;25869;-77
2022/09/02 09:28:27;;;;;;;0.28;0.28;;;;;;;17.23;55.02;101399.47;1686952;83;27482;-77
2022/09/02 09:30:53;;;;;;;0.82;0.30;;;;;;;17.29;54.21;101393.20;1719678;82;25938;-77
2022/09/02 09:33:21;;;;;;;1.05;0.30;;;;;;;17.31;54.37;101382.47;1719917;82;25728;-77
2022/09/02 09:35:51;;;;;;;0.70;0.30;;;;;;;17.35;53.63;101382.36;1721763;82;26271;-77
2022/09/02 09:38:32;;;;;;;3.00;0.40;;;;;;;17.38;54.20;101382.46;1718399;82;25712;-77
2022/09/02 09:41:19;;;;;;;0.65;0.40;;;;;;;17.43;53.94;101382.12;1717493;80;27640;-77
2022/09/02 09:43:45;;;;;;;0.75;0.23;;;;;;;17.52;53.92;101382.75;1715003;82;25880;-77
2022/09/02 09:46:32;;;;;;;0.62;0.30;;;;;;;17.59;53.42;101387.13;1718175;82;25856;-77
2022/09/02 09:48:59;;;;;;;4.62;0.40;;;;;;;17.64;53.34;101389.19;1721201;82;26366;-78
2022/09/02 09:51:25;;;;;;;0.60;0.30;;;;;;;17.65;52.92;101386.27;1699258;83;25765;-78
2022/09/02 09:53:52;;;;;;;0.50;0.30;;;;;;;17.68;52.44;101379.04;1721822;82;27429;-78
2022/09/02 09:56:26;;;;;;;0.55;0.42;;;;;;;17.69;52.58;101372.59;1716784;82;25966;-78
2022/09/02 09:58:52;;;;;;;0.70;0.25;;;;;;;17.77;52.11;101374.76;1719755;82;26254;-78
2022/09/02 10:01:26;;;;;;;1.80;0.30;;;;;;;17.79;50.99;101373.50;1717507;82;25820;-78
2022/09/02 10:04:05;;;;;;;0.20;0.20;;;;;;;17.82;52.03;101366.28;1722230;82;25324;-77
2022/09/02 10:06:37;;;;;;;1.75;0.85;;;;;;;17.90;50.61;101363.31;1710754;82;28100;-78
2022/09/02 10:09:14;;;;;;;2.83;0.50;;;;;;;17.93;51.17;101360.19;1713811;82;26478;-78
2022/09/02 10:12:09;;;;;;;1.42;0.30;;;;;;;18.00;51.21;101360.99;1712092;82;26152;-77
2022/09/02 10:14:41;;;;;;;1.10;0.40;;;;;;;18.05;50.87;101361.16;1719700;82;26814;-77
2022/09/02 10:17:56;;;;;;;2.22;0.40;;;;;;;18.13;51.61;101354.14;1717356;82;25763;-77
2022/09/02 10:20:49;;;;;;;1.15;0.30;;;;;;;18.23;51.41;101352.30;1719438;82;26912;-78
2022/09/02 10:23:31;;;;;;;1.30;0.35;;;;;;;18.31;50.59;101358.80;1717298;82;25836;-78
2022/09/02 10:26:26;;;;;;;1.02;0.25;;;;;;;18.33;50.50;101354.83;1719194;82;25763;-78
2022/09/02 10:29:38;;;;;;;0.70;0.50;;;;;;;18.36;50.46;101357.64;1720523;82;26071;-78
2022/09/02 10:32:45;;;;;;;1.92;0.37;;;;;;;18.42;50.46;101350.81;1715997;82;25622;-77
2022/09/02 10:35:24;;;;;;;1.92;0.33;;;;;;;18.45;50.82;101353.64;1715439;82;27716;-78
2022/09/02 10:38:06;;;;;;;1.45;0.25;;;;;;;18.45;50.35;101343.60;1718643;82;25803;-78
2022/09/02 10:40:49;;;;;;;1.37;0.33;;;;;;;18.53;50.40;101340.32;1720298;82;25746;-77
2022/09/02 10:43:43;;;;;;;1.10;0.30;;;;;;;18.61;50.83;101347.66;1715988;82;26051;-77
2022/09/02 10:46:16;;;;;;;2.25;0.37;;;;;;;18.66;50.26;101344.29;1715964;82;25773;-78
2022/09/02 10:49:02;;;;;;;1.27;0.30;;;;;;;18.69;48.59;101344.66;1719165;82;28299;-78
2022/09/02 10:51:43;;;;;;;0.33;0.30;;;;;;;18.68;48.01;101341.66;1718654;82;25881;-78
2022/09/02 10:54:30;;;;;;;1.20;0.40;;;;;;;18.72;48.92;101340.69;1717574;82;26265;-77
2022/09/02 10:57:18;;;;;;;0.82;0.30;;;;;;;18.77;48.68;101336.27;1717142;82;26230;-77
2022/09/02 10:59:59;;;;;;;0.85;0.40;;;;;;;18.83;48.46;101339.44;1714143;82;25934;-77
2022/09/02 11:02:30;;;;;;;2.77;0.85;;;;;;;18.85;47.95;101335.98;1703729;82;28373;-77
2022/09/02 11:05:04;;;;;;;2.17;0.20;;;;;;;18.92;48.41;101338.11;1718641;82;25782;-78
2022/09/02 11:07:39;;;;;;;2.00;0.45;;;;;;;18.97;48.18;101327.91;1720673;80;25723;-77
2022/09/02 11:10:26;;;;;;;1.17;0.40;;;;;;;19.01;48.22;101327.80;1719262;82;26413;-77
2022/09/02 11:13:06;;;;;;;1.05;0.30;;;;;;;19.09;48.22;101326.14;1692283;83;27172;-77
2022/09/02 11:16:02;;;;;;;0.43;0.20;;;;;;;19.18;47.63;101331.59;1693065;84;28272;-77
2022/09/02 11:18:49;;;;;;;1.25;0.40;;;;;;;19.24;47.76;101329.33;1716957;82;25808;-77
2022/09/02 11:21:41;;;;;;;3.92;0.40;;;;;;;19.29;47.16;101337.61;1720390;81;25882;-77
2022/09/02 11:24:27;;;;;;;1.82;0.42;;;;;;;19.38;47.85;101336.28;1720622;81;25766;-78
2022/09/02 11:27:23;;;;;;;1.45;0.37;;;;;;;19.48;47.94;101325.70;1712398;81;26130;-77
2022/09/02 11:30:03;;;;;;;0.95;0.30;;;;;;;19.61;47.18;101335.06;1710743;81;27629;-77
2022/09/02 11:32:41;;;;;;;0.70;0.23;;;;;;;19.73;47.40;101325.63;1714403;83;25928;-78
2022/09/02 11:35:26;;;;;;;0.17;0.17;;;;;;;19.83;46.41;101319.10;1754895;78;27084;-77
2022/09/02 11:38:03;;;;;;;0.40;0.28;;;;;;;19.82;45.69;101324.26;1749517;76;26014;-78
2022/09/02 11:40:59;;;;;;;0.78;0.25;;;;;;;19.78;45.99;101316.27;1732444;78;26728;-77
2022/09/02 11:43:31;;;;;;;1.85;0.20;;;;;;;19.79;45.79;101321.98;1783712;78;27644;-78
2022/09/02 11:46:13;;;;;;;0.53;0.25;;;;;;;19.72;45.80;101309.84;1791128;78;25885;-78
2022/09/02 11:49:00;;;;;;;2.25;0.30;;;;;;;19.64;45.68;101311.52;1785167;78;26484;-77
2022/09/02 11:52:11;;;;;;;1.90;0.30;;;;;;;19.48;45.73;101310.77;1793348;78;25989;-77
2022/09/02 11:54:42;;;;;;;1.45;0.20;;;;;;;19.33;45.81;101306.77;1791998;78;26397;-78